Henderson, Nevada Weather observations

Data are for observation ending at time listed.
 Day   Time    Ave.   Ave.  Ave.  Vector   Max.   Stn.    Total    Solar   Ave.  
  of    of     Air    Rel.  Wind   Wind    Wind   Baro.  Precip.   Rad.    Soil  
Year   Day     Temp.  Hum.  Speed  Dir.    Gust   Pres.                    Temp. 
2016   (PST)    F      %     mph   deg.    mph     mb.     in.     W/m2     F   
------------------------------------------------------------------------------
 121   13:40   64.6    55    4.2   321      7.8   930.9    0.00    1123    71.5
 121   13:50   66.1    52    2.6   330      7.7   930.8    0.00     661    73.3
 121   14:00   64.8    53    3.4   319      8.8   930.7    0.00     370    72.1
 121   14:10   64.4    52    4.2   320     10.7   930.6    0.00     229    71.0
 121   14:20   63.5    54    4.7   340     10.7   930.6    0.00      76    69.4
 121   14:30   63.4    54    3.7    10     10.2   930.6    0.00     134    67.9
 121   14:40   61.6    64    9.1    97     16.4   930.8    0.00     202    66.6
 121   14:50   61.3    65    7.1    98     14.0   930.8    0.00     197    65.3
 121   15:00   60.6    69    6.7   102     10.4   930.8    0.00     167    63.8
 121   15:10   60.7    66    5.1   105      9.1   930.8    0.00     265    62.7
 121   15:20   62.2    58    4.5   102      7.3   930.9    0.00     354    63.0
 121   15:30   62.5    56    3.0    93      6.7   931.0    0.00     194    63.9
 121   15:40   62.7    59    4.4   107     10.2   931.0    0.00     296    64.1
 121   15:50   63.2    59    3.9   105      7.4   931.1    0.00     345    65.2
 121   16:00   61.7    62    1.9    85      5.3   931.4    0.00      57    64.9
 121   16:10   59.8    70    4.5    10     13.7   931.6    0.00      27    64.0
 121   16:20   58.1    78    3.8   358      8.7   931.6    0.00      24    62.1
 121   16:30   57.3    82    1.7   328      5.0   931.5    0.01      43    60.4
 121   16:40   56.7    84    2.3   300      4.5   931.4    0.00      74    58.9
 121   16:50   56.6    83    1.5   274      4.1   931.4    0.00      65    57.9
 121   17:00   56.9    84    1.9   297      3.7   931.4    0.00      71    57.2
 121   17:10   57.3    82    1.4   293      3.7   931.3    0.00      87    56.9
 121   17:20   57.7    80    1.5   319      3.5   931.4    0.00      75    56.8
 121   17:30   57.4    80    3.2   315      5.8   931.4    0.00      43    56.8
 121   17:40   57.2    82    2.0   306      3.4   931.4    0.00      23    56.7
 121   17:50   57.0    83    3.1   308      5.1   931.2    0.00      20    56.6
 121   18:00   56.9    84    2.0   317      3.7   931.2    0.00      20    56.3
 121   18:10   56.7    84    2.6   306      4.4   931.3    0.00      18    56.0
 121   18:20   56.6    84    2.6   314      4.5   931.4    0.00      13    55.6
 121   18:30   56.4    84    2.7   313      5.3   931.6    0.00       6    55.4
 121   18:40   56.2    81    3.1   300      4.8   931.5    0.00       1    55.1
 121   18:50   56.4    78    3.0   296      5.1   931.6    0.00       0    54.9
 121   19:00   56.6    74    4.0   301      6.6   931.7    0.00       0    54.9
 121   19:10   56.7    74    3.2   308      5.8   932.0    0.00       0    55.0
 121   19:20   56.7    75    2.3   313      4.5   932.1    0.00       0    55.1
 121   19:30   56.6    76    1.2   336      3.4   932.2    0.00       0    55.1
 121   19:40   56.3    78    1.2   311      2.1   932.3    0.00       0    55.0
 121   19:50   56.2    78    0.1    20      1.0   932.5    0.00       0    54.8
 121   20:00   55.9    78    0.4   359      1.2   932.6    0.00       0    54.6
 121   20:10   56.2    77    1.2   304      2.5   932.6    0.00       0    54.7
 121   20:20   56.4    77    1.0   346      2.1   932.7    0.00       0    54.8
 121   20:30   56.4    77    0.7    50      1.7   932.8    0.00       0    54.8
 121   20:40   56.6    79    0.3    48      1.1   932.9    0.00       0    54.9
 121   20:50   56.6    81    0.1     3      1.2   933.0    0.00       0    54.9
 121   21:00   56.4    82    0.1   325      0.9   933.0    0.00       0    54.9
 121   21:10   56.2    83    1.3   290      2.2   932.9    0.00       0    55.0
 121   21:20   56.2    83    0.8   324      2.0   933.1    0.00       0    55.1
 121   21:30   56.2    82    0.8   307      2.2   932.8    0.00       0    55.0
 121   21:40   56.1    80    0.9   314      2.9   932.7    0.00       0    55.0
 121   21:50   56.2    76    2.9   307      4.5   932.7    0.00       0    54.9
 121   22:00   56.5    74    4.5   305      8.0   932.6    0.00       0    54.9
 121   22:10   56.7    73    4.0   305      7.0   932.5    0.00       0    54.9
 121   22:20   56.6    74    3.4   316      6.6   932.5    0.00       0    54.9
 121   22:30   56.5    75    3.6   307      6.4   932.5    0.00       0    54.8
 121   22:40   56.6    75    2.5   302      5.8   932.5    0.00       0    54.7
 121   22:50   56.5    75    2.4   303      4.8   932.6    0.00       0    54.4
 121   23:00   56.3    76    1.7    30      3.6   932.7    0.00       0    54.2
 121   23:10   55.8    79    1.6   117      3.9   932.9    0.00       0    53.9
 121   23:20   55.3    81    0.5   104      1.6   933.0    0.00       0    53.6
 121   23:30   54.8    82    0.0     0      0.0   933.1    0.00       0    53.2
 121   23:40   54.3    83    0.4   199      1.7   933.0    0.00       0    52.6
 121   23:50   54.2    84    1.1   218      2.7   932.9    0.00       0    52.2
 122    0:00   54.4    83    2.2   191      3.8   932.9    0.00       0    51.8
 122    0:10   55.5    79    2.7   186      3.8   932.9    0.00       0    51.9
 122    0:20   55.5    79    2.4   195      3.2   932.9    0.00       0    52.0
 122    0:30   55.1    79    2.0   204      3.2   932.9    0.00       0    52.0
 122    0:40   54.6    81    2.0   247      3.7   932.8    0.00       0    51.7
 122    0:50   54.3    80    2.2   260      3.8   932.7    0.00       0    51.6
 122    1:00   55.0    76    2.1   259      2.8   932.8    0.00       0    51.6
 122    1:10   55.1    76    1.6   241      3.1   932.8    0.00       0    51.5
 122    1:20   55.0    76    1.6   231      2.6   932.8    0.00       0    51.4
 122    1:30   55.2    75    1.5   231      2.5   932.8    0.00       0    51.4
 122    1:40   55.2    76    1.3   242      2.3   932.7    0.00       0    51.5
 122    1:50   55.5    75    1.8   240      3.1   932.7    0.00       0    51.8
 122    2:00   55.5    75    1.8   234      3.1   932.7    0.00       0    52.2
 122    2:10   55.2    77    1.5   244      2.8   932.7    0.00       0    52.4
 122    2:20   55.6    74    2.5   244      4.8   932.7    0.00       0    52.4
 122    2:30   55.6    74    2.7   273      6.2   932.8    0.00       0    52.5
 122    2:40   56.3    70    3.2   281      6.4   932.8    0.00       0    52.8
 122    2:50   56.2    71    3.5   274      4.7   932.9    0.00       0    52.9
 122    3:00   55.9    71    2.7   281      4.5   933.2    0.00       0    53.1
 122    3:10   55.8    71    2.5   276      4.3   933.1    0.00       0    53.1
 122    3:20   56.0    70    2.2   276      3.1   933.3    0.00       0    53.0
 122    3:30   55.8    70    1.4   299      3.5   933.2    0.00       0    52.9
 122    3:40   55.5    71    0.5   274      1.5   933.3    0.00       0    52.4
 122    3:50   54.9    72    0.7   236      1.6   933.3    0.00       0    52.0
 122    4:00   54.1    74    0.2   222      0.9   933.2    0.00       0    51.5
 122    4:10   54.0    75    1.0   261      1.9   933.3    0.00       0    51.0
 122    4:20   54.3    74    1.2   259      2.2   933.4    0.00       0    50.8
 122    4:30   54.1    75    1.0   256      3.0   933.3    0.00       0    50.5
 122    4:40   53.8    76    2.2   251      2.9   933.5    0.00       0    50.3
 122    4:50   54.3    74    1.7   252      2.8   933.6    0.00       4    50.3
 122    5:00   54.5    72    2.2   246      3.0   933.6    0.00       7    50.3
 122    5:10   54.4    73    2.1   243      3.2   933.6    0.00      14    50.3
 122    5:20   54.0    74    1.8   254      2.7   933.7    0.00      24    50.3
 122    5:30   54.8    72    1.9   253      2.8   933.9    0.00      43    50.4
 122    5:40   55.5    71    1.8   271      2.9   933.9    0.00      76    50.5
 122    5:50   56.1    70    2.0   276      2.9   934.2    0.00     116    51.0
 122    6:00   57.5    67    1.4   284      2.6   934.2    0.00     188    52.2
 122    6:10   59.1    63    1.9   304      3.9   934.4    0.00     226    53.8
 122    6:20   59.8    61    2.3   317      5.0   934.6    0.00     263    55.6
 122    6:30   60.2    60    3.2   315      6.4   934.7    0.00     300    59.2
 122    6:40   60.7    58    2.9   318      5.2   934.8    0.00     338    62.1
 122    6:50   61.2    56    2.9   317      5.4   935.0    0.00     378    64.4
 122    7:00   61.6    55    2.5   320      5.0   935.1    0.00     417    66.4
 122    7:10   62.2    53    2.7   325      5.5   935.2    0.00     457    67.9
 122    7:20   62.7    52    2.4   314      4.2   935.2    0.00     494    69.3
 122    7:30   63.2    50    1.8   316      5.0   935.3    0.00     531    70.6
 122    7:40   63.4    49    2.6   303      5.4   935.3    0.00     569    71.8
 122    7:50   63.5    48    3.3   319      7.2   935.4    0.00     606    72.5
 122    8:00   64.0    46    3.7   327      8.6   935.4    0.00     640    73.0
 122    8:10   64.7    44    3.3   328      9.4   935.5    0.00     673    73.5
 122    8:20   65.6    43    2.8   357      5.9   935.5    0.00     706    74.5
 122    8:30   65.8    42    3.7   347      8.3   935.6    0.00     739    75.2
 122    8:40   66.2    42    2.7   349      8.3   935.6    0.00     770    75.8
 122    8:50   67.5    40    2.8    45      6.9   935.6    0.00     802    76.6
 122    9:00   67.6    39    3.5   345      9.6   935.7    0.00     833    77.2
 122    9:10   67.4    39    4.2   337      8.8   935.7    0.00     861    77.4
 122    9:20   68.5    37    2.8    53      7.3   935.8    0.00     888    77.8
 122    9:30   68.6    35    4.0     5     11.5   935.8    0.00     914    78.2
 122    9:40   69.0    34    3.4     1      8.6   935.8    0.00     937    78.6
 122    9:50   69.5    34    3.2    26      9.2   935.9    0.00     961    79.0
 122   10:00   70.2    34    2.2   341      7.3   935.9    0.00     979    79.6
 122   10:10   70.8    33    2.6     8      7.6   935.9    0.00     998    80.3
 122   10:20   71.0    32    2.6    30      9.7   936.0    0.00    1017    80.9
 122   10:30   70.9    32    2.5   344     12.0   935.9    0.00    1032    81.2
 122   10:40   71.4    32    2.2    31      7.2   935.8    0.00    1043    81.4
 122   10:50   71.4    31    3.0    11      7.0   935.9    0.00    1055    81.7
 122   11:00   71.9    31    3.1   339      7.2   935.8    0.00    1066    81.8
 122   11:10   72.5    31    3.1    75     10.7   935.6    0.00    1076    81.9
 122   11:20   72.0    31    2.0    73      7.2   935.6    0.00    1079    81.7
 122   11:30   72.5    29    3.4   355      8.8   935.5    0.00    1087    81.8
 122   11:40   72.4    30    2.7    69      8.1   935.5    0.00    1092    81.7
 122   11:50   72.6    29    2.4    44      8.3   935.6    0.00    1091    81.6
 122   12:00   73.1    30    2.8    52      7.5   935.6    0.00    1092    81.7
 122   12:10   73.5    28    3.8    27     11.0   935.6    0.00    1090    81.6
 122   12:20   73.8    28    2.1   324      5.0   935.6    0.00    1084    81.7
 122   12:30   74.1    28    3.0    69      7.3   935.5    0.00    1079    81.7
 122   12:40   73.8    28    3.7    94      8.0   935.6    0.00    1076    81.3
 122   12:50   74.8    27    2.8    96      7.3   935.5    0.00    1068    81.4
 122   13:00   74.2    27    3.7   299      7.4   935.5    0.00    1061    81.6
 122   13:10   75.0    26    2.4    49      6.1   935.5    0.00    1052    81.9
 122   13:20   75.7    23    3.5    80     12.3   935.6    0.00    1052    82.4
 122   13:30   75.0    23    2.4    15     11.0   935.6    0.00    1013    82.7

Return to Henderson, Nevada graphs page.


Western Regional Climate Center,wrcc@dri.edu